sensor_id;sensor_type;location;lat;lon;timestamp;P1;durP1;ratioP1;P2;durP2;ratioP2
11439;SDS011;5776;51.814;4.510;2023-04-29T00:00:00;21.63;;;13.07;;
11439;SDS011;5776;51.814;4.510;2023-04-29T00:02:26;15.30;;;10.97;;
11439;SDS011;5776;51.814;4.510;2023-04-29T00:04:53;23.37;;;13.20;;
11439;SDS011;5776;51.814;4.510;2023-04-29T00:07:19;20.70;;;12.43;;
11439;SDS011;5776;51.814;4.510;2023-04-29T00:09:44;21.27;;;13.87;;
11439;SDS011;5776;51.814;4.510;2023-04-29T00:12:10;21.27;;;13.67;;
11439;SDS011;5776;51.814;4.510;2023-04-29T00:14:36;26.07;;;15.33;;
11439;SDS011;5776;51.814;4.510;2023-04-29T00:17:03;25.37;;;15.57;;
11439;SDS011;5776;51.814;4.510;2023-04-29T00:19:29;26.87;;;15.87;;
11439;SDS011;5776;51.814;4.510;2023-04-29T00:21:55;27.17;;;16.03;;
11439;SDS011;5776;51.814;4.510;2023-04-29T00:24:21;26.73;;;14.70;;
11439;SDS011;5776;51.814;4.510;2023-04-29T00:26:47;29.80;;;14.63;;
11439;SDS011;5776;51.814;4.510;2023-04-29T00:29:13;26.47;;;14.33;;
11439;SDS011;5776;51.814;4.510;2023-04-29T00:31:38;33.17;;;15.53;;
11439;SDS011;5776;51.814;4.510;2023-04-29T00:34:04;28.53;;;14.93;;
11439;SDS011;5776;51.814;4.510;2023-04-29T00:36:31;29.67;;;14.50;;
11439;SDS011;5776;51.814;4.510;2023-04-29T00:38:57;27.10;;;14.10;;
11439;SDS011;5776;51.814;4.510;2023-04-29T00:41:24;24.50;;;13.70;;
11439;SDS011;5776;51.814;4.510;2023-04-29T00:43:50;32.27;;;15.53;;
11439;SDS011;5776;51.814;4.510;2023-04-29T00:46:17;25.00;;;12.90;;
11439;SDS011;5776;51.814;4.510;2023-04-29T00:48:42;32.10;;;13.77;;
11439;SDS011;5776;51.814;4.510;2023-04-29T00:51:10;27.43;;;14.87;;
11439;SDS011;5776;51.814;4.510;2023-04-29T00:53:36;29.03;;;14.63;;
11439;SDS011;5776;51.814;4.510;2023-04-29T00:56:03;27.20;;;13.67;;
11439;SDS011;5776;51.814;4.510;2023-04-29T00:58:31;22.30;;;11.43;;
11439;SDS011;5776;51.814;4.510;2023-04-29T01:01:00;28.63;;;13.83;;
11439;SDS011;5776;51.814;4.510;2023-04-29T01:03:29;24.10;;;12.33;;
11439;SDS011;5776;51.814;4.510;2023-04-29T01:06:06;24.67;;;12.40;;
11439;SDS011;5776;51.814;4.510;2023-04-29T01:11:25;26.73;;;14.27;;
11439;SDS011;5776;51.814;4.510;2023-04-29T01:13:59;23.73;;;13.53;;
11439;SDS011;5776;51.814;4.510;2023-04-29T01:19:11;24.20;;;12.43;;
11439;SDS011;5776;51.814;4.510;2023-04-29T01:21:44;20.93;;;13.70;;
11439;SDS011;5776;51.814;4.510;2023-04-29T01:24:13;23.53;;;13.60;;
11439;SDS011;5776;51.814;4.510;2023-04-29T01:26:41;23.57;;;12.80;;
11439;SDS011;5776;51.814;4.510;2023-04-29T01:32:04;20.27;;;11.27;;
11439;SDS011;5776;51.814;4.510;2023-04-29T01:34:54;21.90;;;13.90;;
11439;SDS011;5776;51.814;4.510;2023-04-29T01:37:47;16.80;;;11.93;;
11439;SDS011;5776;51.814;4.510;2023-04-29T01:43:07;21.40;;;11.77;;
11439;SDS011;5776;51.814;4.510;2023-04-29T01:45:37;16.77;;;10.90;;
11439;SDS011;5776;51.814;4.510;2023-04-29T01:48:08;17.80;;;11.27;;
11439;SDS011;5776;51.814;4.510;2023-04-29T01:50:34;22.47;;;12.80;;
11439;SDS011;5776;51.814;4.510;2023-04-29T01:53:00;18.97;;;11.07;;
11439;SDS011;5776;51.814;4.510;2023-04-29T01:55:27;17.77;;;11.50;;
11439;SDS011;5776;51.814;4.510;2023-04-29T01:57:52;23.57;;;11.67;;
11439;SDS011;5776;51.814;4.510;2023-04-29T02:00:18;24.43;;;12.40;;
11439;SDS011;5776;51.814;4.510;2023-04-29T02:02:43;18.60;;;12.17;;
11439;SDS011;5776;51.814;4.510;2023-04-29T02:05:09;20.17;;;13.43;;
11439;SDS011;5776;51.814;4.510;2023-04-29T02:07:36;19.27;;;13.13;;
11439;SDS011;5776;51.814;4.510;2023-04-29T02:10:02;22.30;;;12.33;;
11439;SDS011;5776;51.814;4.510;2023-04-29T02:12:27;17.87;;;13.07;;
11439;SDS011;5776;51.814;4.510;2023-04-29T02:14:53;15.83;;;11.37;;
11439;SDS011;5776;51.814;4.510;2023-04-29T02:17:19;20.37;;;12.20;;
11439;SDS011;5776;51.814;4.510;2023-04-29T02:19:44;17.90;;;11.20;;
11439;SDS011;5776;51.814;4.510;2023-04-29T02:22:10;21.67;;;13.07;;
11439;SDS011;5776;51.814;4.510;2023-04-29T02:24:37;17.70;;;13.03;;
11439;SDS011;5776;51.814;4.510;2023-04-29T02:27:03;18.20;;;11.80;;
11439;SDS011;5776;51.814;4.510;2023-04-29T02:29:31;18.03;;;12.73;;
11439;SDS011;5776;51.814;4.510;2023-04-29T02:31:57;17.83;;;11.97;;
11439;SDS011;5776;51.814;4.510;2023-04-29T02:34:23;20.47;;;13.10;;
11439;SDS011;5776;51.814;4.510;2023-04-29T02:36:49;18.50;;;13.10;;
11439;SDS011;5776;51.814;4.510;2023-04-29T02:39:15;20.67;;;13.43;;
11439;SDS011;5776;51.814;4.510;2023-04-29T02:41:41;21.07;;;12.63;;
11439;SDS011;5776;51.814;4.510;2023-04-29T02:44:07;19.93;;;12.00;;
11439;SDS011;5776;51.814;4.510;2023-04-29T02:46:33;23.73;;;13.60;;
11439;SDS011;5776;51.814;4.510;2023-04-29T02:49:00;21.77;;;13.03;;
11439;SDS011;5776;51.814;4.510;2023-04-29T02:51:27;20.90;;;12.80;;
11439;SDS011;5776;51.814;4.510;2023-04-29T02:53:53;20.83;;;13.63;;
11439;SDS011;5776;51.814;4.510;2023-04-29T02:56:19;24.43;;;12.70;;
11439;SDS011;5776;51.814;4.510;2023-04-29T02:58:45;17.40;;;12.40;;
11439;SDS011;5776;51.814;4.510;2023-04-29T03:01:11;21.00;;;13.03;;
11439;SDS011;5776;51.814;4.510;2023-04-29T03:03:37;17.17;;;12.03;;
11439;SDS011;5776;51.814;4.510;2023-04-29T03:06:03;18.70;;;11.83;;
11439;SDS011;5776;51.814;4.510;2023-04-29T03:08:29;18.10;;;11.77;;
11439;SDS011;5776;51.814;4.510;2023-04-29T03:10:55;18.80;;;10.80;;
11439;SDS011;5776;51.814;4.510;2023-04-29T03:13:21;18.70;;;11.10;;
11439;SDS011;5776;51.814;4.510;2023-04-29T03:15:47;14.33;;;10.63;;
11439;SDS011;5776;51.814;4.510;2023-04-29T03:18:13;20.40;;;11.17;;
11439;SDS011;5776;51.814;4.510;2023-04-29T03:20:38;17.60;;;10.57;;
11439;SDS011;5776;51.814;4.510;2023-04-29T03:23:04;21.03;;;11.97;;
11439;SDS011;5776;51.814;4.510;2023-04-29T03:25:30;16.53;;;10.77;;
11439;SDS011;5776;51.814;4.510;2023-04-29T03:27:56;17.07;;;10.77;;
11439;SDS011;5776;51.814;4.510;2023-04-29T03:30:22;14.70;;;9.87;;
11439;SDS011;5776;51.814;4.510;2023-04-29T03:32:48;19.80;;;10.63;;
11439;SDS011;5776;51.814;4.510;2023-04-29T03:35:14;16.37;;;11.13;;
11439;SDS011;5776;51.814;4.510;2023-04-29T03:37:40;17.67;;;10.67;;
11439;SDS011;5776;51.814;4.510;2023-04-29T03:40:08;20.20;;;11.33;;
11439;SDS011;5776;51.814;4.510;2023-04-29T03:42:35;17.57;;;10.93;;
11439;SDS011;5776;51.814;4.510;2023-04-29T03:45:01;18.80;;;11.07;;
11439;SDS011;5776;51.814;4.510;2023-04-29T03:47:27;17.93;;;11.00;;
11439;SDS011;5776;51.814;4.510;2023-04-29T03:49:53;16.97;;;10.87;;
11439;SDS011;5776;51.814;4.510;2023-04-29T03:52:19;15.40;;;9.40;;
11439;SDS011;5776;51.814;4.510;2023-04-29T03:54:46;17.07;;;10.50;;
11439;SDS011;5776;51.814;4.510;2023-04-29T03:57:12;15.87;;;9.67;;
11439;SDS011;5776;51.814;4.510;2023-04-29T03:59:37;13.40;;;9.60;;
11439;SDS011;5776;51.814;4.510;2023-04-29T04:02:03;18.47;;;10.20;;
11439;SDS011;5776;51.814;4.510;2023-04-29T04:04:29;13.63;;;8.93;;
11439;SDS011;5776;51.814;4.510;2023-04-29T04:06:55;15.83;;;10.30;;
11439;SDS011;5776;51.814;4.510;2023-04-29T04:09:21;13.63;;;9.43;;
11439;SDS011;5776;51.814;4.510;2023-04-29T04:11:47;16.67;;;9.57;;
11439;SDS011;5776;51.814;4.510;2023-04-29T04:14:13;14.60;;;9.67;;
11439;SDS011;5776;51.814;4.510;2023-04-29T04:16:38;15.77;;;10.03;;
11439;SDS011;5776;51.814;4.510;2023-04-29T04:19:04;14.80;;;9.83;;
11439;SDS011;5776;51.814;4.510;2023-04-29T04:21:30;16.47;;;10.10;;
11439;SDS011;5776;51.814;4.510;2023-04-29T04:23:56;16.33;;;10.57;;
11439;SDS011;5776;51.814;4.510;2023-04-29T04:26:22;15.67;;;10.23;;
11439;SDS011;5776;51.814;4.510;2023-04-29T04:28:48;19.57;;;10.40;;
11439;SDS011;5776;51.814;4.510;2023-04-29T04:31:14;15.87;;;10.33;;
11439;SDS011;5776;51.814;4.510;2023-04-29T04:33:41;18.17;;;11.07;;
11439;SDS011;5776;51.814;4.510;2023-04-29T04:36:07;20.67;;;11.43;;
11439;SDS011;5776;51.814;4.510;2023-04-29T04:38:32;21.07;;;11.50;;
11439;SDS011;5776;51.814;4.510;2023-04-29T04:40:58;17.50;;;10.97;;
11439;SDS011;5776;51.814;4.510;2023-04-29T04:43:24;17.93;;;10.97;;
11439;SDS011;5776;51.814;4.510;2023-04-29T04:45:51;20.10;;;11.20;;
11439;SDS011;5776;51.814;4.510;2023-04-29T04:48:18;16.00;;;10.43;;
11439;SDS011;5776;51.814;4.510;2023-04-29T04:50:44;16.40;;;10.60;;
11439;SDS011;5776;51.814;4.510;2023-04-29T04:53:10;16.00;;;10.97;;
11439;SDS011;5776;51.814;4.510;2023-04-29T04:55:35;19.23;;;11.33;;
11439;SDS011;5776;51.814;4.510;2023-04-29T04:58:01;16.03;;;10.37;;
11439;SDS011;5776;51.814;4.510;2023-04-29T05:00:27;19.83;;;10.77;;
11439;SDS011;5776;51.814;4.510;2023-04-29T05:02:53;15.60;;;10.23;;
11439;SDS011;5776;51.814;4.510;2023-04-29T05:05:19;17.47;;;10.90;;
11439;SDS011;5776;51.814;4.510;2023-04-29T05:07:45;24.13;;;11.37;;
11439;SDS011;5776;51.814;4.510;2023-04-29T05:10:11;17.10;;;11.60;;
11439;SDS011;5776;51.814;4.510;2023-04-29T05:12:38;16.17;;;10.80;;
11439;SDS011;5776;51.814;4.510;2023-04-29T05:15:05;17.40;;;9.50;;
11439;SDS011;5776;51.814;4.510;2023-04-29T05:17:31;22.07;;;10.80;;
11439;SDS011;5776;51.814;4.510;2023-04-29T05:19:57;15.90;;;10.67;;
11439;SDS011;5776;51.814;4.510;2023-04-29T05:22:23;21.20;;;11.77;;
11439;SDS011;5776;51.814;4.510;2023-04-29T05:24:49;18.53;;;10.53;;
11439;SDS011;5776;51.814;4.510;2023-04-29T05:27:17;17.87;;;9.97;;
11439;SDS011;5776;51.814;4.510;2023-04-29T05:29:43;22.33;;;11.40;;
11439;SDS011;5776;51.814;4.510;2023-04-29T05:32:09;22.13;;;11.00;;
11439;SDS011;5776;51.814;4.510;2023-04-29T05:34:35;18.33;;;10.23;;
11439;SDS011;5776;51.814;4.510;2023-04-29T05:37:01;15.30;;;10.80;;
11439;SDS011;5776;51.814;4.510;2023-04-29T05:39:27;20.77;;;11.27;;
11439;SDS011;5776;51.814;4.510;2023-04-29T05:41:53;15.70;;;9.40;;
11439;SDS011;5776;51.814;4.510;2023-04-29T05:44:19;17.83;;;10.20;;
11439;SDS011;5776;51.814;4.510;2023-04-29T05:46:45;17.40;;;10.47;;
11439;SDS011;5776;51.814;4.510;2023-04-29T05:49:13;20.37;;;11.07;;
11439;SDS011;5776;51.814;4.510;2023-04-29T05:51:40;19.90;;;10.97;;
11439;SDS011;5776;51.814;4.510;2023-04-29T05:54:06;18.23;;;10.70;;
11439;SDS011;5776;51.814;4.510;2023-04-29T05:56:32;22.40;;;10.97;;
11439;SDS011;5776;51.814;4.510;2023-04-29T05:58:58;19.23;;;10.90;;
11439;SDS011;5776;51.814;4.510;2023-04-29T06:01:24;21.03;;;10.47;;
11439;SDS011;5776;51.814;4.510;2023-04-29T06:03:49;15.87;;;10.23;;
11439;SDS011;5776;51.814;4.510;2023-04-29T06:06:15;19.60;;;9.70;;
11439;SDS011;5776;51.814;4.510;2023-04-29T06:08:42;22.07;;;10.90;;
11439;SDS011;5776;51.814;4.510;2023-04-29T06:11:08;18.83;;;11.07;;
11439;SDS011;5776;51.814;4.510;2023-04-29T06:13:33;21.07;;;10.50;;
11439;SDS011;5776;51.814;4.510;2023-04-29T06:15:59;21.67;;;11.53;;
11439;SDS011;5776;51.814;4.510;2023-04-29T06:18:25;19.63;;;10.07;;
11439;SDS011;5776;51.814;4.510;2023-04-29T06:20:51;23.03;;;9.80;;
11439;SDS011;5776;51.814;4.510;2023-04-29T06:23:17;26.07;;;10.83;;
11439;SDS011;5776;51.814;4.510;2023-04-29T06:25:43;21.27;;;11.57;;
11439;SDS011;5776;51.814;4.510;2023-04-29T06:28:09;23.70;;;11.93;;
11439;SDS011;5776;51.814;4.510;2023-04-29T06:30:35;26.17;;;11.33;;
11439;SDS011;5776;51.814;4.510;2023-04-29T06:33:01;18.57;;;11.20;;
11439;SDS011;5776;51.814;4.510;2023-04-29T06:35:26;21.03;;;11.77;;
11439;SDS011;5776;51.814;4.510;2023-04-29T06:37:52;22.87;;;10.83;;
11439;SDS011;5776;51.814;4.510;2023-04-29T06:40:18;22.27;;;11.47;;
11439;SDS011;5776;51.814;4.510;2023-04-29T06:42:44;19.43;;;11.47;;
11439;SDS011;5776;51.814;4.510;2023-04-29T06:45:11;20.40;;;11.33;;
11439;SDS011;5776;51.814;4.510;2023-04-29T06:47:37;21.70;;;10.83;;
11439;SDS011;5776;51.814;4.510;2023-04-29T06:50:03;20.73;;;11.20;;
11439;SDS011;5776;51.814;4.510;2023-04-29T06:52:29;21.47;;;11.37;;
11439;SDS011;5776;51.814;4.510;2023-04-29T06:54:55;19.20;;;10.53;;
11439;SDS011;5776;51.814;4.510;2023-04-29T06:57:21;18.03;;;11.17;;
11439;SDS011;5776;51.814;4.510;2023-04-29T06:59:47;23.40;;;10.77;;
11439;SDS011;5776;51.814;4.510;2023-04-29T07:02:13;20.23;;;10.50;;
11439;SDS011;5776;51.814;4.510;2023-04-29T07:04:40;18.23;;;10.20;;
11439;SDS011;5776;51.814;4.510;2023-04-29T07:07:06;15.23;;;9.67;;
11439;SDS011;5776;51.814;4.510;2023-04-29T07:09:32;14.77;;;9.50;;
11439;SDS011;5776;51.814;4.510;2023-04-29T07:11:58;16.73;;;9.33;;
11439;SDS011;5776;51.814;4.510;2023-04-29T07:14:24;20.03;;;9.70;;
11439;SDS011;5776;51.814;4.510;2023-04-29T07:16:53;16.20;;;9.47;;
11439;SDS011;5776;51.814;4.510;2023-04-29T07:19:19;17.90;;;10.03;;
11439;SDS011;5776;51.814;4.510;2023-04-29T07:21:45;17.57;;;8.93;;
11439;SDS011;5776;51.814;4.510;2023-04-29T07:24:12;14.33;;;8.43;;
11439;SDS011;5776;51.814;4.510;2023-04-29T07:26:37;12.77;;;7.50;;
11439;SDS011;5776;51.814;4.510;2023-04-29T07:29:03;11.83;;;7.93;;
11439;SDS011;5776;51.814;4.510;2023-04-29T07:31:29;18.33;;;8.77;;
11439;SDS011;5776;51.814;4.510;2023-04-29T07:33:54;16.97;;;8.10;;
11439;SDS011;5776;51.814;4.510;2023-04-29T07:36:22;13.13;;;6.70;;
11439;SDS011;5776;51.814;4.510;2023-04-29T07:38:50;15.73;;;8.73;;
11439;SDS011;5776;51.814;4.510;2023-04-29T07:41:16;16.30;;;8.83;;
11439;SDS011;5776;51.814;4.510;2023-04-29T07:43:42;13.50;;;8.23;;
11439;SDS011;5776;51.814;4.510;2023-04-29T07:46:08;14.60;;;8.50;;
11439;SDS011;5776;51.814;4.510;2023-04-29T07:48:37;12.87;;;8.60;;
11439;SDS011;5776;51.814;4.510;2023-04-29T07:51:04;14.47;;;8.30;;
11439;SDS011;5776;51.814;4.510;2023-04-29T07:53:31;12.10;;;7.73;;
11439;SDS011;5776;51.814;4.510;2023-04-29T07:55:57;11.20;;;7.30;;
11439;SDS011;5776;51.814;4.510;2023-04-29T07:58:23;13.20;;;8.43;;
11439;SDS011;5776;51.814;4.510;2023-04-29T08:00:49;14.20;;;7.80;;
11439;SDS011;5776;51.814;4.510;2023-04-29T08:03:14;12.63;;;8.23;;
11439;SDS011;5776;51.814;4.510;2023-04-29T08:05:40;20.23;;;8.87;;
11439;SDS011;5776;51.814;4.510;2023-04-29T08:08:09;18.40;;;8.13;;
11439;SDS011;5776;51.814;4.510;2023-04-29T08:10:36;11.80;;;6.90;;
11439;SDS011;5776;51.814;4.510;2023-04-29T08:13:05;10.50;;;5.77;;
11439;SDS011;5776;51.814;4.510;2023-04-29T08:15:31;13.63;;;6.63;;
11439;SDS011;5776;51.814;4.510;2023-04-29T08:17:58;9.33;;;6.67;;
11439;SDS011;5776;51.814;4.510;2023-04-29T08:20:24;8.60;;;4.33;;
11439;SDS011;5776;51.814;4.510;2023-04-29T08:22:49;9.03;;;6.10;;
11439;SDS011;5776;51.814;4.510;2023-04-29T08:25:15;12.20;;;7.17;;
11439;SDS011;5776;51.814;4.510;2023-04-29T08:27:41;9.60;;;6.13;;
11439;SDS011;5776;51.814;4.510;2023-04-29T08:30:09;7.77;;;5.93;;
11439;SDS011;5776;51.814;4.510;2023-04-29T08:32:36;9.13;;;6.00;;
11439;SDS011;5776;51.814;4.510;2023-04-29T08:35:02;8.33;;;4.73;;
11439;SDS011;5776;51.814;4.510;2023-04-29T08:37:28;15.77;;;5.10;;
11439;SDS011;5776;51.814;4.510;2023-04-29T08:39:54;15.83;;;5.40;;
11439;SDS011;5776;51.814;4.510;2023-04-29T08:42:27;7.43;;;4.97;;
11439;SDS011;5776;51.814;4.510;2023-04-29T08:45:00;8.00;;;4.90;;
11439;SDS011;5776;51.814;4.510;2023-04-29T08:47:31;9.23;;;5.60;;
11439;SDS011;5776;51.814;4.510;2023-04-29T08:50:00;9.30;;;5.70;;
11439;SDS011;5776;51.814;4.510;2023-04-29T08:52:31;6.63;;;4.83;;
11439;SDS011;5776;51.814;4.510;2023-04-29T08:55:00;9.87;;;5.40;;
11439;SDS011;5776;51.814;4.510;2023-04-29T08:57:28;10.60;;;5.60;;
11439;SDS011;5776;51.814;4.510;2023-04-29T08:59:56;6.73;;;4.63;;
11439;SDS011;5776;51.814;4.510;2023-04-29T09:02:25;6.93;;;5.27;;
11439;SDS011;5776;51.814;4.510;2023-04-29T09:04:54;7.27;;;4.67;;
11439;SDS011;5776;51.814;4.510;2023-04-29T09:07:23;10.53;;;4.60;;
11439;SDS011;5776;51.814;4.510;2023-04-29T09:09:50;7.33;;;4.30;;
11439;SDS011;5776;51.814;4.510;2023-04-29T09:12:18;7.93;;;3.87;;
11439;SDS011;5776;51.814;4.510;2023-04-29T09:14:44;5.93;;;4.73;;
11439;SDS011;5776;51.814;4.510;2023-04-29T09:17:09;9.57;;;4.27;;
11439;SDS011;5776;51.814;4.510;2023-04-29T09:19:35;6.27;;;3.80;;
11439;SDS011;5776;51.814;4.510;2023-04-29T09:22:02;8.23;;;5.40;;
11439;SDS011;5776;51.814;4.510;2023-04-29T09:24:29;14.53;;;7.03;;
11439;SDS011;5776;51.814;4.510;2023-04-29T09:26:56;8.33;;;5.43;;
11439;SDS011;5776;51.814;4.510;2023-04-29T09:29:23;11.57;;;6.20;;
11439;SDS011;5776;51.814;4.510;2023-04-29T09:31:49;13.90;;;5.23;;
11439;SDS011;5776;51.814;4.510;2023-04-29T09:34:29;10.10;;;5.63;;
11439;SDS011;5776;51.814;4.510;2023-04-29T09:36:55;12.43;;;5.80;;
11439;SDS011;5776;51.814;4.510;2023-04-29T09:39:23;7.97;;;4.53;;
11439;SDS011;5776;51.814;4.510;2023-04-29T09:44:17;10.00;;;5.60;;
11439;SDS011;5776;51.814;4.510;2023-04-29T09:46:52;12.17;;;5.93;;
11439;SDS011;5776;51.814;4.510;2023-04-29T09:49:21;6.97;;;5.00;;
11439;SDS011;5776;51.814;4.510;2023-04-29T09:51:53;11.27;;;4.60;;
11439;SDS011;5776;51.814;4.510;2023-04-29T09:54:20;8.70;;;5.93;;
11439;SDS011;5776;51.814;4.510;2023-04-29T09:56:51;12.73;;;5.57;;
11439;SDS011;5776;51.814;4.510;2023-04-29T09:59:18;9.10;;;5.10;;
11439;SDS011;5776;51.814;4.510;2023-04-29T10:01:51;8.17;;;4.73;;
11439;SDS011;5776;51.814;4.510;2023-04-29T10:04:18;8.17;;;4.63;;
11439;SDS011;5776;51.814;4.510;2023-04-29T10:06:47;5.63;;;4.20;;
11439;SDS011;5776;51.814;4.510;2023-04-29T10:09:14;9.53;;;5.43;;
11439;SDS011;5776;51.814;4.510;2023-04-29T10:11:41;8.57;;;4.00;;
11439;SDS011;5776;51.814;4.510;2023-04-29T10:14:11;5.33;;;3.80;;
11439;SDS011;5776;51.814;4.510;2023-04-29T10:16:44;5.90;;;3.47;;
11439;SDS011;5776;51.814;4.510;2023-04-29T10:19:50;6.57;;;3.93;;
11439;SDS011;5776;51.814;4.510;2023-04-29T10:22:28;6.97;;;3.80;;
11439;SDS011;5776;51.814;4.510;2023-04-29T10:25:10;4.27;;;3.37;;
11439;SDS011;5776;51.814;4.510;2023-04-29T10:27:36;6.90;;;3.80;;
11439;SDS011;5776;51.814;4.510;2023-04-29T10:30:04;8.53;;;3.63;;
11439;SDS011;5776;51.814;4.510;2023-04-29T10:32:33;8.93;;;5.20;;
11439;SDS011;5776;51.814;4.510;2023-04-29T10:34:59;8.10;;;5.20;;
11439;SDS011;5776;51.814;4.510;2023-04-29T10:37:26;6.37;;;4.17;;
11439;SDS011;5776;51.814;4.510;2023-04-29T10:39:58;7.40;;;4.80;;
11439;SDS011;5776;51.814;4.510;2023-04-29T10:42:32;5.30;;;3.63;;
11439;SDS011;5776;51.814;4.510;2023-04-29T10:50:32;7.37;;;5.50;;
11439;SDS011;5776;51.814;4.510;2023-04-29T10:53:04;6.53;;;3.60;;
11439;SDS011;5776;51.814;4.510;2023-04-29T10:55:30;5.60;;;4.10;;
11439;SDS011;5776;51.814;4.510;2023-04-29T10:58:01;6.87;;;3.77;;
11439;SDS011;5776;51.814;4.510;2023-04-29T11:00:29;14.13;;;5.03;;
11439;SDS011;5776;51.814;4.510;2023-04-29T11:02:57;9.27;;;5.00;;
11439;SDS011;5776;51.814;4.510;2023-04-29T11:05:30;6.70;;;4.37;;
11439;SDS011;5776;51.814;4.510;2023-04-29T11:08:12;6.53;;;4.53;;
11439;SDS011;5776;51.814;4.510;2023-04-29T11:10:52;5.03;;;2.83;;
11439;SDS011;5776;51.814;4.510;2023-04-29T11:13:28;5.60;;;3.80;;
11439;SDS011;5776;51.814;4.510;2023-04-29T11:16:06;6.33;;;3.67;;
11439;SDS011;5776;51.814;4.510;2023-04-29T11:18:34;7.93;;;4.77;;
11439;SDS011;5776;51.814;4.510;2023-04-29T11:23:35;6.33;;;3.47;;
11439;SDS011;5776;51.814;4.510;2023-04-29T11:26:03;14.97;;;6.07;;
11439;SDS011;5776;51.814;4.510;2023-04-29T11:28:30;7.80;;;5.17;;
11439;SDS011;5776;51.814;4.510;2023-04-29T11:30:57;8.47;;;5.27;;
11439;SDS011;5776;51.814;4.510;2023-04-29T11:33:24;8.47;;;5.23;;
11439;SDS011;5776;51.814;4.510;2023-04-29T11:35:55;9.23;;;5.23;;
11439;SDS011;5776;51.814;4.510;2023-04-29T11:38:25;7.80;;;4.67;;
11439;SDS011;5776;51.814;4.510;2023-04-29T11:40:55;9.13;;;4.80;;
11439;SDS011;5776;51.814;4.510;2023-04-29T11:43:23;7.60;;;5.40;;
11439;SDS011;5776;51.814;4.510;2023-04-29T11:45:49;5.27;;;3.73;;
11439;SDS011;5776;51.814;4.510;2023-04-29T11:48:17;11.03;;;4.67;;
11439;SDS011;5776;51.814;4.510;2023-04-29T11:50:46;8.93;;;5.80;;
11439;SDS011;5776;51.814;4.510;2023-04-29T11:53:14;8.13;;;5.20;;
11439;SDS011;5776;51.814;4.510;2023-04-29T11:55:41;5.00;;;3.83;;
11439;SDS011;5776;51.814;4.510;2023-04-29T11:58:08;12.50;;;5.90;;
11439;SDS011;5776;51.814;4.510;2023-04-29T12:00:34;10.17;;;5.67;;
11439;SDS011;5776;51.814;4.510;2023-04-29T12:03:00;7.47;;;4.90;;
11439;SDS011;5776;51.814;4.510;2023-04-29T12:05:26;11.33;;;6.23;;
11439;SDS011;5776;51.814;4.510;2023-04-29T12:07:55;8.30;;;5.17;;
11439;SDS011;5776;51.814;4.510;2023-04-29T12:10:21;10.27;;;5.77;;
11439;SDS011;5776;51.814;4.510;2023-04-29T12:12:47;7.83;;;5.43;;
11439;SDS011;5776;51.814;4.510;2023-04-29T12:15:13;10.40;;;5.97;;
11439;SDS011;5776;51.814;4.510;2023-04-29T12:17:39;7.73;;;5.50;;
11439;SDS011;5776;51.814;4.510;2023-04-29T12:20:07;9.97;;;5.00;;
11439;SDS011;5776;51.814;4.510;2023-04-29T12:22:34;7.73;;;4.77;;
11439;SDS011;5776;51.814;4.510;2023-04-29T12:25:05;10.67;;;5.00;;
11439;SDS011;5776;51.814;4.510;2023-04-29T12:27:32;7.07;;;4.10;;
11439;SDS011;5776;51.814;4.510;2023-04-29T12:30:00;7.57;;;3.83;;
11439;SDS011;5776;51.814;4.510;2023-04-29T12:32:26;8.40;;;5.73;;
11439;SDS011;5776;51.814;4.510;2023-04-29T12:34:52;7.97;;;5.50;;
11439;SDS011;5776;51.814;4.510;2023-04-29T12:37:22;6.33;;;4.10;;
11439;SDS011;5776;51.814;4.510;2023-04-29T12:39:49;11.23;;;6.27;;
11439;SDS011;5776;51.814;4.510;2023-04-29T12:42:15;10.10;;;6.30;;
11439;SDS011;5776;51.814;4.510;2023-04-29T12:44:43;7.23;;;4.13;;
11439;SDS011;5776;51.814;4.510;2023-04-29T12:47:11;9.27;;;5.60;;
11439;SDS011;5776;51.814;4.510;2023-04-29T12:49:44;7.93;;;5.90;;
11439;SDS011;5776;51.814;4.510;2023-04-29T12:52:11;10.37;;;6.00;;
11439;SDS011;5776;51.814;4.510;2023-04-29T12:54:38;8.83;;;5.30;;
11439;SDS011;5776;51.814;4.510;2023-04-29T12:57:11;11.37;;;5.37;;
11439;SDS011;5776;51.814;4.510;2023-04-29T12:59:37;10.87;;;4.73;;
11439;SDS011;5776;51.814;4.510;2023-04-29T13:02:04;9.23;;;5.20;;
11439;SDS011;5776;51.814;4.510;2023-04-29T13:04:29;7.43;;;3.97;;
11439;SDS011;5776;51.814;4.510;2023-04-29T13:06:55;8.10;;;5.13;;
11439;SDS011;5776;51.814;4.510;2023-04-29T13:09:25;4.10;;;3.70;;
11439;SDS011;5776;51.814;4.510;2023-04-29T13:11:51;6.30;;;4.43;;
11439;SDS011;5776;51.814;4.510;2023-04-29T13:14:17;9.07;;;4.60;;
11439;SDS011;5776;51.814;4.510;2023-04-29T13:16:43;6.00;;;4.00;;
11439;SDS011;5776;51.814;4.510;2023-04-29T13:19:10;6.33;;;4.27;;
11439;SDS011;5776;51.814;4.510;2023-04-29T13:21:37;11.73;;;5.07;;
11439;SDS011;5776;51.814;4.510;2023-04-29T13:24:03;7.20;;;5.30;;
11439;SDS011;5776;51.814;4.510;2023-04-29T13:26:29;5.10;;;3.87;;
11439;SDS011;5776;51.814;4.510;2023-04-29T13:28:56;6.17;;;4.00;;
11439;SDS011;5776;51.814;4.510;2023-04-29T13:31:22;9.27;;;5.27;;
11439;SDS011;5776;51.814;4.510;2023-04-29T13:33:48;5.63;;;4.07;;
11439;SDS011;5776;51.814;4.510;2023-04-29T13:36:13;11.30;;;5.40;;
11439;SDS011;5776;51.814;4.510;2023-04-29T13:38:39;10.20;;;4.80;;
11439;SDS011;5776;51.814;4.510;2023-04-29T13:41:06;10.23;;;5.10;;
11439;SDS011;5776;51.814;4.510;2023-04-29T13:43:32;8.60;;;4.63;;
11439;SDS011;5776;51.814;4.510;2023-04-29T13:45:58;10.10;;;5.73;;
11439;SDS011;5776;51.814;4.510;2023-04-29T13:48:24;10.67;;;5.57;;
11439;SDS011;5776;51.814;4.510;2023-04-29T13:50:50;6.63;;;4.57;;
11439;SDS011;5776;51.814;4.510;2023-04-29T13:53:16;6.73;;;4.13;;
11439;SDS011;5776;51.814;4.510;2023-04-29T13:55:42;6.20;;;4.20;;
11439;SDS011;5776;51.814;4.510;2023-04-29T13:58:08;7.73;;;3.83;;
11439;SDS011;5776;51.814;4.510;2023-04-29T14:00:33;6.83;;;4.20;;
11439;SDS011;5776;51.814;4.510;2023-04-29T14:02:59;6.03;;;3.40;;
11439;SDS011;5776;51.814;4.510;2023-04-29T14:05:25;6.53;;;4.17;;
11439;SDS011;5776;51.814;4.510;2023-04-29T14:07:51;10.53;;;6.17;;
11439;SDS011;5776;51.814;4.510;2023-04-29T14:10:17;13.73;;;7.33;;
11439;SDS011;5776;51.814;4.510;2023-04-29T14:12:43;10.10;;;6.40;;
11439;SDS011;5776;51.814;4.510;2023-04-29T14:15:10;10.07;;;6.27;;
11439;SDS011;5776;51.814;4.510;2023-04-29T14:17:36;13.20;;;7.20;;
11439;SDS011;5776;51.814;4.510;2023-04-29T14:20:02;8.80;;;5.47;;
11439;SDS011;5776;51.814;4.510;2023-04-29T14:22:28;7.63;;;4.90;;
11439;SDS011;5776;51.814;4.510;2023-04-29T14:24:54;9.03;;;4.80;;
11439;SDS011;5776;51.814;4.510;2023-04-29T14:27:20;8.83;;;6.37;;
11439;SDS011;5776;51.814;4.510;2023-04-29T14:29:47;8.93;;;5.03;;
11439;SDS011;5776;51.814;4.510;2023-04-29T14:32:13;11.97;;;6.60;;
11439;SDS011;5776;51.814;4.510;2023-04-29T14:34:39;10.37;;;6.77;;
11439;SDS011;5776;51.814;4.510;2023-04-29T14:37:05;12.70;;;7.23;;
11439;SDS011;5776;51.814;4.510;2023-04-29T14:39:30;11.07;;;6.40;;
11439;SDS011;5776;51.814;4.510;2023-04-29T14:41:56;8.90;;;5.77;;
11439;SDS011;5776;51.814;4.510;2023-04-29T14:44:22;10.90;;;6.77;;
11439;SDS011;5776;51.814;4.510;2023-04-29T14:46:48;12.77;;;6.43;;
11439;SDS011;5776;51.814;4.510;2023-04-29T14:49:14;12.23;;;6.37;;
11439;SDS011;5776;51.814;4.510;2023-04-29T14:51:41;13.47;;;5.93;;
11439;SDS011;5776;51.814;4.510;2023-04-29T14:54:07;10.00;;;6.47;;
11439;SDS011;5776;51.814;4.510;2023-04-29T14:56:33;14.50;;;5.70;;
11439;SDS011;5776;51.814;4.510;2023-04-29T14:59:01;9.93;;;6.57;;
11439;SDS011;5776;51.814;4.510;2023-04-29T15:01:27;10.60;;;6.23;;
11439;SDS011;5776;51.814;4.510;2023-04-29T15:03:53;11.70;;;5.83;;
11439;SDS011;5776;51.814;4.510;2023-04-29T15:06:19;8.50;;;5.30;;